createdAt,value
2023-03-14T00:04:31.443Z,100144.63
2023-03-14T00:09:53.161Z,100146.63
2023-03-14T00:15:14.869Z,100148.78
2023-03-14T00:20:36.372Z,100143.31
2023-03-14T00:26:11.166Z,100155.75
2023-03-14T00:31:33.122Z,100163.69
2023-03-14T00:36:55.562Z,100166.31
2023-03-14T00:42:17.836Z,100172.69
2023-03-14T00:47:39.286Z,100181.22
2023-03-14T00:53:00.522Z,100191.31
2023-03-14T00:58:03.757Z,100210.13
2023-03-14T01:03:07.172Z,100215.03
2023-03-14T01:08:10.173Z,100211.38
2023-03-14T01:13:12.940Z,100223.00
2023-03-14T01:18:15.878Z,100229.84
2023-03-14T01:23:19.439Z,100238.09
2023-03-14T01:28:22.356Z,100236.03
2023-03-14T01:33:25.195Z,100246.56
2023-03-14T01:38:46.947Z,100252.16
2023-03-14T01:43:52.042Z,100255.97
2023-03-14T01:49:33.114Z,100260.78
2023-03-14T01:54:47.741Z,100268.25
2023-03-14T01:59:58.141Z,100272.25
2023-03-14T02:05:01.189Z,100285.25
2023-03-14T02:10:28.542Z,100281.97
2023-03-14T02:15:33.420Z,100282.69
2023-03-14T02:21:27.850Z,100286.41
2023-03-14T02:26:41.556Z,100289.44
2023-03-14T02:31:44.642Z,100287.56
2023-03-14T02:36:48.609Z,100292.09
2023-03-14T02:41:51.671Z,100292.84
2023-03-14T02:46:54.805Z,100294.44
2023-03-14T02:51:57.779Z,100303.59
2023-03-14T02:57:01.161Z,100308.88
2023-03-14T03:02:04.554Z,100308.59
2023-03-14T03:07:08.373Z,100319.16
2023-03-14T03:12:11.412Z,100321.00
2023-03-14T03:17:14.894Z,100321.50
2023-03-14T03:22:17.779Z,100327.66
2023-03-14T03:27:20.671Z,100326.00
2023-03-14T03:32:23.549Z,100319.78
2023-03-14T03:37:26.924Z,100320.75
2023-03-14T03:42:29.990Z,100323.25
2023-03-14T03:47:33.030Z,100341.63
2023-03-14T03:52:36.014Z,100344.13
2023-03-14T03:57:38.957Z,100345.28
2023-03-14T04:02:42.542Z,100347.22
2023-03-14T04:07:49.097Z,100359.69
2023-03-14T04:12:56.930Z,100352.59
2023-03-14T04:18:02.924Z,100369.75
2023-03-14T04:23:06.776Z,100383.59
2023-03-14T04:28:09.678Z,100390.13
2023-03-14T04:33:15.531Z,100398.72
2023-03-14T04:38:23.342Z,100403.41
2023-03-14T04:43:27.985Z,100419.44
2023-03-14T04:48:39.457Z,100422.00
2023-03-14T04:53:43.961Z,100426.03
2023-03-14T04:58:49.161Z,100428.66
2023-03-14T05:03:54.456Z,100451.59
2023-03-14T05:09:16.584Z,100442.66
2023-03-14T05:14:25.124Z,100452.81
2023-03-14T05:19:54.251Z,100444.00
2023-03-14T05:25:15.728Z,100436.25
2023-03-14T05:30:48.164Z,100442.66
2023-03-14T05:36:09.997Z,100463.91
2023-03-14T05:41:33.419Z,100459.53
2023-03-14T05:46:54.737Z,100452.06
2023-03-14T05:51:57.555Z,100455.31
2023-03-14T05:57:20.400Z,100458.13
2023-03-14T06:02:41.890Z,100451.69
2023-03-14T06:07:55.377Z,100439.56
2023-03-14T06:12:58.563Z,100441.78
2023-03-14T06:18:01.555Z,100448.69
2023-03-14T06:23:04.979Z,100438.84
2023-03-14T06:28:08.160Z,100467.53
2023-03-14T06:33:11.701Z,100466.75
2023-03-14T06:38:17.369Z,100475.94
2023-03-14T06:43:38.865Z,100484.50
2023-03-14T06:48:43.639Z,100484.72
2023-03-14T06:53:47.581Z,100482.97
2023-03-14T06:58:52.413Z,100501.50
2023-03-14T07:03:58.337Z,100497.69
2023-03-14T07:09:03.019Z,100507.53
2023-03-14T07:14:07.309Z,100489.25
2023-03-14T07:19:10.401Z,100482.41
2023-03-14T07:24:14.226Z,100492.94
2023-03-14T07:29:17.126Z,100503.69
2023-03-14T07:34:20.759Z,100509.25
2023-03-14T07:39:23.935Z,100499.22
2023-03-14T07:44:49.448Z,100511.31
2023-03-14T07:49:52.248Z,100507.06
2023-03-14T07:54:55.129Z,100513.19
2023-03-14T07:59:58.142Z,100513.56
2023-03-14T08:05:01.078Z,100514.44
2023-03-14T08:10:05.516Z,100514.28
2023-03-14T08:15:08.829Z,100515.78
2023-03-14T08:20:14.038Z,100517.25
2023-03-14T08:25:17.423Z,100520.34
2023-03-14T08:30:22.122Z,100513.59
2023-03-14T08:35:26.420Z,100517.31
2023-03-14T08:40:29.167Z,100516.31
2023-03-14T08:45:31.938Z,100502.56
2023-03-14T08:50:34.911Z,100501.09
2023-03-14T08:55:37.791Z,100500.19
2023-03-14T09:00:40.672Z,100492.44
2023-03-14T09:05:43.550Z,100501.03
2023-03-14T09:10:46.672Z,100479.50
2023-03-14T09:15:57.251Z,100477.53
2023-03-14T09:21:00.154Z,100468.56
2023-03-14T09:26:03.057Z,100458.88
2023-03-14T09:31:11.304Z,100429.06
2023-03-14T09:36:14.280Z,100420.03
2023-03-14T09:41:29.218Z,100427.31
2023-03-14T09:46:35.020Z,100410.81
2023-03-14T09:51:38.510Z,100432.69
2023-03-14T09:56:41.845Z,100421.06
2023-03-14T10:01:44.767Z,100418.00
2023-03-14T10:06:49.379Z,100420.59
2023-03-14T10:11:58.483Z,100423.75
2023-03-14T10:17:13.854Z,100431.03
2023-03-14T10:22:16.741Z,100436.50
2023-03-14T10:27:22.570Z,100429.63
2023-03-14T10:32:39.559Z,100437.19
2023-03-14T10:38:01.097Z,100414.69
2023-03-14T10:43:06.705Z,100437.28
2023-03-14T10:48:16.297Z,100446.78
2023-03-14T10:53:20.297Z,100443.50
2023-03-14T10:58:26.581Z,100461.69
2023-03-14T11:03:33.525Z,100469.63
2023-03-14T11:08:59.173Z,100474.59
2023-03-14T11:14:11.243Z,100478.81
2023-03-14T11:19:17.238Z,100476.16
2023-03-14T11:24:38.430Z,100469.34
2023-03-14T11:29:56.722Z,100477.34
2023-03-14T11:35:04.560Z,100474.78
2023-03-14T11:40:14.194Z,100463.31
2023-03-14T11:45:26.535Z,100456.78
2023-03-14T11:50:31.638Z,100445.25
2023-03-14T11:55:37.264Z,100458.50
2023-03-14T12:00:42.971Z,100446.44
2023-03-14T12:06:15.298Z,100437.38
2023-03-14T12:11:46.386Z,100424.00
2023-03-14T12:16:50.520Z,100430.44
2023-03-14T12:22:01.658Z,100427.75
2023-03-14T12:27:06.706Z,100432.16
2023-03-14T12:32:26.470Z,100426.50
2023-03-14T12:37:47.916Z,100414.00
2023-03-14T12:43:04.423Z,100422.50
2023-03-14T12:48:11.539Z,100399.31
2023-03-14T12:53:39.249Z,100404.97
2023-03-14T12:59:03.717Z,100411.50
2023-03-14T13:04:11.534Z,100405.38
2023-03-14T13:09:35.638Z,100393.16
2023-03-14T13:14:46.222Z,100375.09
2023-03-14T13:19:57.188Z,100382.47
2023-03-14T13:25:05.541Z,100384.03
2023-03-14T13:30:16.621Z,100368.03
2023-03-14T13:35:27.321Z,100351.59
2023-03-14T13:40:31.977Z,100348.06
2023-03-14T13:45:45.919Z,100352.72
2023-03-14T13:50:55.709Z,100333.56
2023-03-14T13:56:03.549Z,100333.22
2023-03-14T14:01:11.622Z,100328.94
2023-03-14T14:06:37.064Z,100321.09
2023-03-14T14:12:14.840Z,100327.97
2023-03-14T14:17:47.661Z,100331.56
2023-03-14T14:22:51.998Z,100319.50
2023-03-14T14:27:54.876Z,100314.94
2023-03-14T14:33:22.006Z,100314.22
2023-03-14T14:38:26.086Z,100317.91
2023-03-14T14:43:31.790Z,100317.72
2023-03-14T14:48:38.876Z,100308.38
2023-03-14T14:53:45.679Z,100316.59
2023-03-14T14:58:48.807Z,100321.25
2023-03-14T15:03:53.985Z,100317.09
2023-03-14T15:08:57.044Z,100325.75
2023-03-14T15:13:59.847Z,100325.31
2023-03-14T15:19:23.712Z,100328.25
2023-03-14T15:24:27.365Z,100328.03
2023-03-14T15:29:30.418Z,100321.16
2023-03-14T15:34:33.262Z,100339.91
2023-03-14T15:39:36.321Z,100332.78
2023-03-14T15:44:40.294Z,100335.13
2023-03-14T15:49:43.219Z,100333.03
2023-03-14T15:54:46.087Z,100333.81
2023-03-14T15:59:48.876Z,100355.03
2023-03-14T16:04:51.838Z,100346.91
2023-03-14T16:09:54.962Z,100342.94
2023-03-14T16:14:57.820Z,100348.72
2023-03-14T16:20:00.798Z,100339.75
2023-03-14T16:25:06.209Z,100346.75
2023-03-14T16:30:09.748Z,100341.25
2023-03-14T16:35:12.577Z,100329.91
2023-03-14T16:40:15.673Z,100340.34
2023-03-14T16:45:18.481Z,100351.22
2023-03-14T16:50:21.646Z,100348.22
2023-03-14T16:55:24.631Z,100365.19
2023-03-14T17:00:27.766Z,100357.75
2023-03-14T17:05:51.943Z,100360.19
2023-03-14T17:10:55.476Z,100347.78
2023-03-14T17:16:00.731Z,100345.00
2023-03-14T17:21:04.321Z,100349.88
2023-03-14T17:26:09.105Z,100340.19
2023-03-14T17:31:17.370Z,100354.63
2023-03-14T17:36:20.445Z,100354.94
2023-03-14T17:41:23.281Z,100364.47
2023-03-14T17:46:27.459Z,100367.78
2023-03-14T17:51:30.399Z,100371.44
2023-03-14T17:56:33.363Z,100366.94
2023-03-14T18:01:36.374Z,100368.78
2023-03-14T18:06:39.440Z,100370.88
2023-03-14T18:11:42.840Z,100362.78
2023-03-14T18:16:51.590Z,100366.56
2023-03-14T18:21:54.530Z,100367.31
2023-03-14T18:26:57.577Z,100367.31
2023-03-14T18:32:00.807Z,100375.19
2023-03-14T18:37:04.278Z,100379.09
2023-03-14T18:42:07.093Z,100371.88
2023-03-14T18:47:10.327Z,100363.47
2023-03-14T18:52:13.383Z,100365.56
2023-03-14T18:57:16.240Z,100358.34
2023-03-14T19:02:19.400Z,100364.66
2023-03-14T19:07:23.872Z,100361.88
2023-03-14T19:12:30.121Z,100360.34
2023-03-14T19:17:33.674Z,100368.78
2023-03-14T19:22:36.579Z,100362.47
2023-03-14T19:27:39.565Z,100365.13
2023-03-14T19:32:42.613Z,100361.34
2023-03-14T19:37:48.187Z,100364.78
2023-03-14T19:42:51.361Z,100373.13
2023-03-14T19:47:54.586Z,100373.75
2023-03-14T19:52:58.588Z,100362.88
2023-03-14T19:58:02.080Z,100364.44
2023-03-14T20:03:05.102Z,100365.09
2023-03-14T20:08:08.646Z,100364.19
2023-03-14T20:13:20.716Z,100367.97
2023-03-14T20:18:24.158Z,100370.16
2023-03-14T20:23:27.070Z,100360.97
2023-03-14T20:28:30.107Z,100379.13
2023-03-14T20:33:51.675Z,100378.34
2023-03-14T20:38:54.592Z,100384.00
2023-03-14T20:43:57.526Z,100382.13
2023-03-14T20:49:02.435Z,100380.88
2023-03-14T20:54:05.523Z,100388.41
2023-03-14T20:59:08.668Z,100383.31
2023-03-14T21:04:11.568Z,100387.84
2023-03-14T21:09:15.027Z,100385.84
2023-03-14T21:14:19.001Z,100373.19
2023-03-14T21:19:22.835Z,100383.16
2023-03-14T21:24:26.010Z,100378.50
2023-03-14T21:29:28.925Z,100383.38
2023-03-14T21:34:31.724Z,100380.59
2023-03-14T21:39:34.782Z,100389.19
2023-03-14T21:44:37.661Z,100391.41
2023-03-14T21:49:40.970Z,100398.16
2023-03-14T21:54:43.898Z,100398.00
2023-03-14T21:59:47.348Z,100407.88
2023-03-14T22:04:50.173Z,100408.53
2023-03-14T22:09:53.459Z,100404.19
2023-03-14T22:14:56.315Z,100409.38
2023-03-14T22:19:59.800Z,100397.84
2023-03-14T22:25:02.730Z,100405.66
2023-03-14T22:30:06.106Z,100399.91
2023-03-14T22:35:09.610Z,100398.22
2023-03-14T22:40:31.025Z,100395.72
2023-03-14T22:45:34.018Z,100410.91
2023-03-14T22:50:40.483Z,100422.19
2023-03-14T22:56:02.875Z,100421.28
2023-03-14T23:01:06.931Z,100410.50
2023-03-14T23:06:10.002Z,100419.88
2023-03-14T23:11:16.368Z,100420.06
2023-03-14T23:16:25.218Z,100429.13
2023-03-14T23:21:53.336Z,100430.09
2023-03-14T23:27:16.837Z,100422.75
2023-03-14T23:32:19.800Z,100417.78
2023-03-14T23:37:24.803Z,100412.78
2023-03-14T23:42:27.918Z,100422.03
2023-03-14T23:47:30.912Z,100429.53
2023-03-14T23:52:52.402Z,100427.19
2023-03-14T23:57:55.285Z,100428.63
